Time;durP1;ratioP1;P1;durP2;ratioP2;P2;SDS_P1;SDS_P2;PMS_P1;PMS_P2;Temp;Humidity;BMP_temperature;BMP_pressure;BME280_temperature;BME280_humidity;BME280_pressure;Samples;Min_cycle;Max_cycle;Signal;HPM_P1;HPM_P2
2022/09/23 00:01:10;;;;;;;8.23;3.95;;;;;;;12.02;100.00;100616.26;1780214;79;21084;-82
2022/09/23 00:03:45;;;;;;;9.53;4.08;;;;;;;11.99;100.00;100614.09;1761608;81;20997;-78
2022/09/23 00:06:20;;;;;;;9.90;3.55;;;;;;;11.97;100.00;100606.80;1760992;81;21025;-84
2022/09/23 00:08:48;;;;;;;10.30;4.10;;;;;;;11.96;100.00;100603.83;1759246;81;20990;-79
2022/09/23 00:11:21;;;;;;;7.85;3.70;;;;;;;11.93;100.00;100598.97;1761905;81;21045;-77
2022/09/23 00:13:50;;;;;;;8.93;4.33;;;;;;;11.90;100.00;100597.61;1699281;83;21042;-84
2022/09/23 00:16:21;;;;;;;8.23;3.52;;;;;;;11.89;100.00;100597.35;1679666;84;21016;-79
2022/09/23 00:21:18;;;;;;;11.60;4.08;;;;;;;11.90;100.00;100594.11;1639159;87;21118;-79
2022/09/23 00:23:44;;;;;;;10.10;4.20;;;;;;;11.89;100.00;100594.66;1639444;87;21142;-79
2022/09/23 00:26:14;;;;;;;9.68;4.12;;;;;;;11.89;100.00;100593.30;1639470;87;21094;-82
2022/09/23 00:28:41;;;;;;;10.10;4.55;;;;;;;11.92;100.00;100602.22;1639510;87;21184;-85
2022/09/23 00:31:14;;;;;;;7.92;4.20;;;;;;;11.95;100.00;100604.38;1639577;87;21153;-78
2022/09/23 00:33:41;;;;;;;9.38;4.15;;;;;;;11.99;100.00;100605.99;1639564;86;21149;-78
2022/09/23 00:36:11;;;;;;;11.63;4.70;;;;;;;12.00;100.00;100601.69;1639541;87;21133;-80
2022/09/23 00:38:37;;;;;;;9.18;4.42;;;;;;;12.02;100.00;100607.61;1639480;87;21574;-81
2022/09/23 00:41:04;;;;;;;8.30;4.28;;;;;;;12.01;100.00;100603.30;1639492;87;21077;-77
2022/09/23 00:43:48;;;;;;;8.00;3.70;;;;;;;11.97;100.00;100603.58;1639336;87;21181;-82
2022/09/23 00:46:22;;;;;;;;;;;;;;;11.94;100.00;100601.93;1586997;90;21058;-79
2022/09/23 00:48:54;;;;;;;7.45;3.92;;;;;;;11.89;100.00;100592.50;1582520;90;20257;-78
2022/09/23 00:51:24;;;;;;;10.70;4.42;;;;;;;11.86;100.00;100591.14;1584567;90;21070;-78
2022/09/23 00:53:51;;;;;;;8.70;4.28;;;;;;;11.85;100.00;100589.50;1619952;88;21588;-80
2022/09/23 00:56:20;;;;;;;10.82;4.05;;;;;;;11.84;100.00;100582.45;1623935;88;21097;-78
2022/09/23 00:58:49;;;;;;;10.43;4.72;;;;;;;11.83;100.00;100578.14;1624259;88;21070;-79
2022/09/23 01:01:15;;;;;;;10.23;4.28;;;;;;;11.83;100.00;100577.59;1623581;87;21595;-78
2022/09/23 01:03:44;;;;;;;11.57;4.50;;;;;;;11.83;100.00;100574.90;1622531;88;21055;-78
2022/09/23 01:06:11;;;;;;;10.55;4.45;;;;;;;11.82;100.00;100575.98;1622302;88;21651;-77
2022/09/23 01:08:37;;;;;;;8.45;4.10;;;;;;;11.82;100.00;100571.94;1622425;87;21170;-81
2022/09/23 01:11:45;;;;;;;9.25;4.15;;;;;;;11.80;100.00;100575.44;1675708;84;21140;-81
2022/09/23 01:14:42;;;;;;;7.50;4.22;;;;;;;11.76;100.00;100570.28;1698383;84;21056;-79
2022/09/23 01:17:26;;;;;;;8.55;4.20;;;;;;;11.73;100.00;100575.41;1701537;81;21065;-78
2022/09/23 01:20:19;;;;;;;10.05;4.50;;;;;;;11.65;100.00;100574.07;1752858;81;21041;-79
2022/09/23 01:23:14;;;;;;;7.53;4.23;;;;;;;11.58;100.00;100566.20;1757966;81;21539;-79
2022/09/23 01:26:06;;;;;;;9.28;4.80;;;;;;;11.54;100.00;100558.93;1686061;85;21753;-78
2022/09/23 01:28:55;;;;;;;7.35;4.03;;;;;;;11.50;100.00;100560.01;1686024;85;21026;-79
2022/09/23 01:31:52;;;;;;;8.98;4.95;;;;;;;11.46;100.00;100560.80;1686011;85;21526;-79
2022/09/23 01:34:35;;;;;;;9.13;4.50;;;;;;;11.42;100.00;100564.57;1686179;85;21045;-77
2022/09/23 01:37:16;;;;;;;;;;;;;;;11.37;100.00;100570.75;1686094;85;21107;-79
2022/09/23 01:39:57;;;;;;;8.45;4.75;;;;;;;11.33;100.00;100570.21;1647642;86;20208;-78
2022/09/23 01:42:43;;;;;;;9.18;4.30;;;;;;;11.31;100.00;100575.05;1686792;83;21072;-79
2022/09/23 01:45:26;;;;;;;13.80;5.08;;;;;;;11.28;100.00;100578.28;1601414;89;21626;-82
2022/09/23 01:48:00;;;;;;;10.23;5.35;;;;;;;11.23;100.00;100570.16;1604850;89;21134;-79
2022/09/23 01:53:31;;;;;;;8.53;4.87;;;;;;;11.21;100.00;100573.14;1545195;92;21142;-79
2022/09/23 01:56:21;;;;;;;12.37;4.85;;;;;;;11.22;100.00;100571.25;1544831;92;21514;-78
2022/09/23 01:59:05;;;;;;;10.28;5.03;;;;;;;11.24;100.00;100576.66;1542485;92;21145;-84
2022/09/23 02:02:05;;;;;;;9.70;5.50;;;;;;;11.20;100.00;100587.69;1571105;90;26952;-77
2022/09/23 02:04:46;;;;;;;11.18;5.42;;;;;;;11.18;100.00;100585.81;1601507;89;21677;-77
2022/09/23 02:07:38;;;;;;;13.25;5.72;;;;;;;11.15;100.00;100583.64;1602256;89;21100;-79
2022/09/23 02:10:18;;;;;;;12.73;5.62;;;;;;;11.15;100.00;100593.08;1604183;89;22312;-78
2022/09/23 02:15:19;;;;;;;16.50;6.40;;;;;;;11.11;100.00;100602.21;1589765;88;20995;-78
2022/09/23 02:17:55;;;;;;;13.48;5.20;;;;;;;10.98;100.00;100597.31;1590173;89;22399;-78
2022/09/23 02:20:26;;;;;;;10.82;5.30;;;;;;;10.95;100.00;100591.64;1590132;90;21555;-78
2022/09/23 02:23:10;;;;;;;9.93;5.22;;;;;;;10.98;100.00;100592.45;1609909;88;21087;-78
2022/09/23 02:25:42;;;;;;;;;;;;;;;11.01;100.00;100598.67;1547230;92;21159;-79
2022/09/23 02:28:26;;;;;;;10.53;5.67;;;;;;;11.00;100.00;100607.82;1449602;97;20507;-76
2022/09/23 02:31:00;;;;;;;15.98;6.30;;;;;;;11.01;100.00;100610.81;1449797;99;21218;-79
2022/09/23 02:33:45;;;;;;;13.60;5.70;;;;;;;10.95;100.00;100616.71;1408418;101;21599;-79
2022/09/23 02:36:30;;;;;;;15.40;5.85;;;;;;;10.90;100.00;100616.13;1411115;101;21151;-79
2022/09/23 02:39:02;;;;;;;14.03;5.60;;;;;;;10.87;100.00;100613.16;1412396;101;21634;-78
2022/09/23 02:41:55;;;;;;;12.35;5.92;;;;;;;10.88;100.00;100618.81;1392867;103;21228;-79
2022/09/23 02:44:22;;;;;;;9.30;5.78;;;;;;;10.91;100.00;100616.42;1393039;103;21205;-77
2022/09/23 02:46:51;;;;;;;12.37;5.90;;;;;;;10.94;100.00;100612.38;1389929;103;21227;-79
2022/09/23 02:49:31;;;;;;;11.30;5.45;;;;;;;10.97;100.00;100599.74;1385313;102;21174;-83
2022/09/23 02:52:06;;;;;;;14.05;5.80;;;;;;;10.98;100.00;100600.55;1398505;101;21631;-82
2022/09/23 02:54:34;;;;;;;11.78;5.30;;;;;;;10.99;100.00;100599.47;1398380;102;21534;-78
2022/09/23 02:57:05;;;;;;;10.55;5.37;;;;;;;11.00;100.00;100592.98;1398213;102;21135;-81
2022/09/23 02:59:34;;;;;;;11.18;5.92;;;;;;;11.01;100.00;100594.09;1398506;101;21776;-79
2022/09/23 03:02:16;;;;;;;13.25;5.58;;;;;;;11.02;100.00;100581.41;1394587;101;21724;-81
2022/09/23 03:05:11;;;;;;;11.50;4.92;;;;;;;11.02;100.00;100576.83;1395280;99;21206;-79
2022/09/23 03:07:43;;;;;;;9.73;5.35;;;;;;;11.04;100.00;100575.23;1439156;98;21191;-78
2022/09/23 03:10:20;;;;;;;12.95;5.80;;;;;;;11.05;100.00;100584.39;1447477;96;21961;-80
2022/09/23 03:13:00;;;;;;;13.62;5.83;;;;;;;11.06;100.00;100573.89;1483221;96;21089;-81
2022/09/23 03:15:56;;;;;;;10.98;5.30;;;;;;;11.08;100.00;100573.61;1447419;98;21041;-77
2022/09/23 03:18:45;;;;;;;10.85;5.90;;;;;;;11.08;100.00;100570.38;1423574;100;21127;-79
2022/09/23 03:21:25;;;;;;;11.35;5.12;;;;;;;11.10;100.00;100572.83;1435608;99;21144;-81
2022/09/23 03:23:52;;;;;;;13.15;6.05;;;;;;;11.10;100.00;100572.83;1477383;96;22030;-79
2022/09/23 03:26:23;;;;;;;14.30;6.28;;;;;;;11.11;100.00;100581.98;1493356;96;21571;-77
2022/09/23 03:28:50;;;;;;;11.53;5.67;;;;;;;11.11;100.00;100579.29;1493479;96;21149;-79
2022/09/23 03:31:17;;;;;;;10.70;5.67;;;;;;;11.11;100.00;100586.58;1493619;96;21690;-83
2022/09/23 03:33:50;;;;;;;13.25;5.42;;;;;;;11.09;100.00;100589.55;1493608;96;21100;-83
2022/09/23 03:39:11;;;;;;;11.10;6.03;;;;;;;11.07;100.00;100592.23;1529214;92;21553;-79
2022/09/23 03:41:47;;;;;;;12.50;6.45;;;;;;;11.06;100.00;100590.59;1550486;92;21084;-79
2022/09/23 03:44:14;;;;;;;13.58;5.78;;;;;;;11.04;100.00;100594.11;1512112;94;21236;-79
2022/09/23 03:46:48;;;;;;;11.20;5.95;;;;;;;11.03;100.00;100599.20;1514844;94;21112;-80
2022/09/23 03:49:14;;;;;;;14.30;5.92;;;;;;;11.01;100.00;100607.57;1511961;94;21145;-81
2022/09/23 03:51:40;;;;;;;14.55;6.08;;;;;;;11.00;100.00;100608.66;1516513;89;21088;-79
2022/09/23 03:54:06;;;;;;;11.95;5.90;;;;;;;11.05;100.00;100610.01;1598228;89;20992;-79
2022/09/23 03:56:32;;;;;;;15.05;6.50;;;;;;;11.08;100.00;100608.13;1598127;89;21110;-78
2022/09/23 03:58:59;;;;;;;11.85;6.40;;;;;;;11.10;100.00;100604.64;1598016;89;38237;-81
2022/09/23 04:01:26;;;;;;;13.55;6.62;;;;;;;11.12;100.00;100606.55;1597851;89;21855;-78
2022/09/23 04:03:52;;;;;;;11.70;5.80;;;;;;;11.16;100.00;100611.42;1597568;89;21623;-78
2022/09/23 04:06:19;;;;;;;14.38;6.40;;;;;;;11.18;100.00;100607.39;1598034;89;21326;-78
2022/09/23 04:08:46;;;;;;;12.55;6.05;;;;;;;11.21;100.00;100610.91;1598121;89;21019;-77
2022/09/23 04:11:12;;;;;;;11.25;6.12;;;;;;;11.25;100.00;100611.98;1598030;89;21090;-80
2022/09/23 04:13:39;;;;;;;11.33;6.25;;;;;;;11.31;100.00;100612.82;1598126;89;21666;-79
2022/09/23 04:16:05;;;;;;;12.88;6.83;;;;;;;11.37;100.00;100616.62;1597557;89;21116;-79
2022/09/23 04:18:32;;;;;;;11.33;5.78;;;;;;;11.44;100.00;100604.77;1597843;89;21074;-79
2022/09/23 04:20:59;;;;;;;14.07;6.35;;;;;;;11.50;100.00;100596.44;1597771;89;21504;-80
2022/09/23 04:23:26;;;;;;;17.92;6.22;;;;;;;11.56;100.00;100588.63;1597932;89;21083;-79
2022/09/23 04:25:53;;;;;;;11.68;5.80;;;;;;;11.62;100.00;100589.97;1598100;89;21087;-78
2022/09/23 04:28:20;;;;;;;12.23;5.92;;;;;;;11.65;100.00;100586.22;1597937;89;21040;-79
2022/09/23 04:30:47;;;;;;;13.03;5.87;;;;;;;11.69;100.00;100589.99;1597635;88;21128;-78
2022/09/23 04:33:15;;;;;;;11.63;5.87;;;;;;;11.74;100.00;100589.20;1602634;86;21031;-78
2022/09/23 04:35:42;;;;;;;19.02;6.62;;;;;;;11.79;100.00;100592.73;1684361;82;21203;-79
2022/09/23 04:38:11;;;;;;;18.17;5.95;;;;;;;11.84;100.00;100597.30;1737298;82;21018;-82
2022/09/23 04:40:38;;;;;;;15.72;6.17;;;;;;;11.86;100.00;100590.33;1760978;79;21471;-83
2022/09/23 04:43:04;;;;;;;11.25;6.12;;;;;;;11.92;100.00;100585.20;1797937;79;21517;-77
2022/09/23 04:45:30;;;;;;;11.55;5.72;;;;;;;11.99;100.00;100592.49;1797636;79;21527;-79
2022/09/23 04:47:57;;;;;;;12.03;5.35;;;;;;;12.04;100.00;100590.61;1798016;79;21025;-83
2022/09/23 04:50:25;;;;;;;10.68;5.40;;;;;;;12.08;100.00;100578.72;1811887;78;21174;-77
2022/09/23 04:52:52;;;;;;;14.95;5.53;;;;;;;12.16;100.00;100580.08;1801684;78;21042;-78
2022/09/23 04:55:19;;;;;;;12.55;6.03;;;;;;;12.28;100.00;100576.01;1798055;79;21478;-77
2022/09/23 04:57:45;;;;;;;12.68;5.60;;;;;;;12.41;100.00;100574.66;1797510;79;20986;-78
2022/09/23 05:00:14;;;;;;;16.55;6.05;;;;;;;12.57;100.00;100579.49;1798086;79;21022;-79
2022/09/23 05:02:48;;;;;;;12.65;5.53;;;;;;;12.73;100.00;100578.91;1807027;78;22077;-77
2022/09/23 05:05:19;;;;;;;9.78;5.72;;;;;;;12.88;100.00;100572.64;1841880;76;20990;-80
2022/09/23 05:07:44;;;;;;;13.95;5.42;;;;;;;12.94;100.00;100572.37;1826666;76;21552;-76
2022/09/23 05:10:11;;;;;;;11.65;5.40;;;;;;;13.04;100.00;100581.53;1838427;77;21032;-78
2022/09/23 05:12:37;;;;;;;14.15;5.05;;;;;;;13.12;100.00;100587.18;1836738;76;21059;-81
2022/09/23 05:15:04;;;;;;;14.55;5.28;;;;;;;13.17;100.00;100593.09;1826903;76;21036;-79
2022/09/23 05:17:30;;;;;;;14.85;5.83;;;;;;;13.24;100.00;100594.17;1814480;78;22075;-78
2022/09/23 05:19:58;;;;;;;12.37;5.65;;;;;;;13.30;100.00;100597.16;1823279;76;21020;-77
2022/09/23 05:22:25;;;;;;;11.90;5.45;;;;;;;13.42;100.00;100593.57;1840285;76;21001;-80
2022/09/23 05:24:53;;;;;;;13.75;5.58;;;;;;;13.47;100.00;100584.59;1821649;77;21055;-78
2022/09/23 05:27:20;;;;;;;12.78;5.10;;;;;;;13.54;100.00;100591.88;1725209;82;21249;-77
2022/09/23 05:29:48;;;;;;;11.20;5.72;;;;;;;13.57;100.00;100583.20;1735406;81;21153;-79
2022/09/23 05:32:14;;;;;;;10.55;5.45;;;;;;;13.65;100.00;100581.27;1734522;81;21061;-78
2022/09/23 05:34:40;;;;;;;11.57;5.05;;;;;;;13.67;100.00;100583.67;1736037;82;22724;-79
2022/09/23 05:37:07;;;;;;;19.12;6.08;;;;;;;13.68;100.00;100579.86;1745303;81;21034;-78
2022/09/23 05:39:33;;;;;;;22.87;6.08;;;;;;;13.71;100.00;100587.45;1700319;82;21049;-83
2022/09/23 05:42:00;;;;;;;12.80;5.47;;;;;;;13.69;100.00;100585.56;1699119;84;21137;-79
2022/09/23 05:44:26;;;;;;;10.68;5.15;;;;;;;13.71;100.00;100584.20;1702307;84;21115;-86
2022/09/23 05:46:52;;;;;;;15.28;6.30;;;;;;;13.69;100.00;100585.02;1681246;84;21772;-80
2022/09/23 05:49:19;;;;;;;11.65;5.20;;;;;;;13.63;100.00;100584.78;1705137;84;21606;-80
2022/09/23 05:51:45;;;;;;;11.20;5.10;;;;;;;13.60;100.00;100582.09;1704940;84;21178;-79
2022/09/23 05:54:11;;;;;;;12.95;5.53;;;;;;;13.59;100.00;100572.36;1704993;84;20969;-79
2022/09/23 05:56:37;;;;;;;11.08;5.25;;;;;;;13.62;100.00;100569.09;1705363;84;21054;-79
2022/09/23 05:59:05;;;;;;;8.25;4.85;;;;;;;13.69;100.00;100567.97;1704966;84;21346;-80
2022/09/23 06:01:35;;;;;;;10.35;5.40;;;;;;;13.76;100.00;100561.12;1705073;84;21124;-79
2022/09/23 06:04:05;;;;;;;8.20;4.70;;;;;;;13.78;100.00;100560.85;1728968;82;22106;-79
2022/09/23 06:06:38;;;;;;;13.50;4.95;;;;;;;13.81;100.00;100567.86;1729702;83;21038;-83
2022/09/23 06:09:06;;;;;;;9.53;5.47;;;;;;;13.83;100.00;100579.78;1729700;83;21055;-79
2022/09/23 06:11:35;;;;;;;10.10;5.12;;;;;;;13.85;100.00;100588.42;1757722;81;21077;-79
2022/09/23 06:14:01;;;;;;;12.35;5.85;;;;;;;13.90;100.00;100599.78;1761841;81;20947;-78
2022/09/23 06:16:30;;;;;;;10.80;5.35;;;;;;;13.98;100.00;100594.57;1761806;81;21111;-85
2022/09/23 06:18:56;;;;;;;8.80;5.20;;;;;;;14.06;100.00;100595.33;1761806;80;21054;-80
2022/09/23 06:21:23;;;;;;;10.23;4.60;;;;;;;14.16;100.00;100591.72;1736409;81;21030;-79
2022/09/23 06:23:49;;;;;;;11.12;5.25;;;;;;;14.27;100.00;100596.52;1763968;78;20983;-84
2022/09/23 06:26:16;;;;;;;8.23;4.58;;;;;;;14.39;100.00;100594.23;1799346;78;21434;-80
2022/09/23 06:28:44;;;;;;;7.92;4.62;;;;;;;14.51;100.00;100591.14;1827228;77;21467;-80
2022/09/23 06:31:14;;;;;;;10.28;4.60;;;;;;;14.68;100.00;100588.84;1826623;77;20970;-80
2022/09/23 06:33:44;;;;;;;9.65;4.60;;;;;;;14.95;100.00;100592.88;1826894;78;21021;-83
2022/09/23 06:36:13;;;;;;;8.70;4.87;;;;;;;15.22;100.00;100597.16;1731124;81;21058;-80
2022/09/23 06:38:43;;;;;;;7.60;4.35;;;;;;;15.48;100.00;100604.18;1731201;81;21031;-76
2022/09/23 06:44:24;;;;;;;7.22;4.62;;;;;;;16.15;100.00;100601.30;1576443;90;21139;-83
2022/09/23 06:47:20;;;;;;;;;;;;;;;;;;;;;
2022/09/23 06:49:36;;;;;;;7.72;4.42;;;;;;;18.58;100.00;100578.70;1560710;91;21243;-79
2022/09/23 06:52:03;;;;;;;9.93;4.08;;;;;;;21.17;100.00;100585.59;1567868;91;21040;-80
2022/09/23 06:54:30;;;;;;;4.65;3.72;;;;;;;23.64;100.00;100588.65;1573581;90;21122;-87
2022/09/23 06:56:56;;;;;;;5.40;3.90;;;;;;;25.62;100.00;100600.26;1591757;90;21093;-84
2022/09/23 06:59:23;;;;;;;7.70;4.40;;;;;;;26.85;100.00;100591.73;1613285;88;21114;-80
2022/09/23 07:01:50;;;;;;;6.53;4.30;;;;;;;27.78;86.22;100598.62;1612716;88;21186;-84
2022/09/23 07:04:16;;;;;;;6.90;4.12;;;;;;;28.38;74.73;100586.63;1570983;90;21081;-77
2022/09/23 07:06:43;;;;;;;6.45;4.10;;;;;;;28.95;69.31;100585.17;1592135;90;22001;-80
2022/09/23 07:09:09;;;;;;;5.78;3.92;;;;;;;29.74;65.24;100585.67;1591662;90;21549;-81
2022/09/23 07:11:36;;;;;;;4.30;3.62;;;;;;;30.60;60.01;100582.30;1592014;90;21110;-78
2022/09/23 07:14:02;;;;;;;4.87;3.75;;;;;;;30.67;55.36;100576.13;1591964;90;21085;-82
2022/09/23 07:16:29;;;;;;;9.38;4.90;;;;;;;30.35;51.27;100583.06;1591788;90;21573;-77
2022/09/23 07:18:56;;;;;;;6.90;3.83;;;;;;;30.13;51.79;100583.59;1591658;90;21949;-81
2022/09/23 07:21:23;;;;;;;5.35;3.47;;;;;;;29.98;48.37;100581.98;1620784;87;21035;-82
2022/09/23 07:23:50;;;;;;;5.83;3.47;;;;;;;28.97;48.11;100581.43;1649999;86;21036;-82
2022/09/23 07:26:18;;;;;;;6.50;3.77;;;;;;;27.96;49.16;100565.02;1628103;88;21078;-78
2022/09/23 07:28:45;;;;;;;5.58;4.37;;;;;;;27.54;50.29;100565.30;1628538;88;21071;-79
2022/09/23 07:31:17;;;;;;;4.90;3.80;;;;;;;27.56;52.62;100567.91;1628655;88;21068;-79
2022/09/23 07:33:43;;;;;;;5.28;3.95;;;;;;;28.71;51.73;100560.23;1705564;83;21041;-78
2022/09/23 07:36:13;;;;;;;4.20;3.05;;;;;;;29.62;51.24;100547.11;1728819;83;21021;-80
2022/09/23 07:38:40;;;;;;;4.80;3.17;;;;;;;30.23;48.49;100543.91;1689258;84;21063;-76
2022/09/23 07:41:10;;;;;;;3.52;2.83;;;;;;;29.96;46.00;100550.39;1665998;84;21062;-78
2022/09/23 07:43:47;;;;;;;6.92;3.35;;;;;;;29.71;44.83;100545.35;1680254;83;21830;-81
2022/09/23 07:46:16;;;;;;;3.75;3.00;;;;;;;28.91;44.97;100555.20;1787523;79;21020;-78
2022/09/23 07:48:44;;;;;;;7.72;2.92;;;;;;;27.96;45.15;100560.08;1790254;78;21046;-77
2022/09/23 07:51:19;;;;;;;4.78;3.15;;;;;;;26.71;45.83;100569.61;1790436;79;21098;-77
2022/09/23 07:53:50;;;;;;;4.70;3.20;;;;;;;25.71;46.94;100570.48;1732259;81;21155;-79
2022/09/23 07:56:18;;;;;;;4.03;2.95;;;;;;;24.93;47.43;100577.19;1733640;81;21088;-77
2022/09/23 07:58:58;;;;;;;3.17;2.45;;;;;;;24.07;49.39;100574.19;1736658;81;21016;-77
2022/09/23 08:01:14;;;;;;;8.28;2.45;;;;;;;23.57;51.73;100569.99;1739855;80;21039;-75
2022/09/23 08:03:40;;;;;;;4.12;2.70;;;;;;;23.19;52.59;100574.54;1728386;81;21102;-75
2022/09/23 08:06:10;;;;;;;4.17;3.05;;;;;;;22.91;53.56;100582.06;1730478;81;21699;-77
2022/09/23 08:08:42;;;;;;;4.30;2.60;;;;;;;22.46;54.46;100578.83;1734035;81;21086;-84
2022/09/23 08:11:10;;;;;;;5.00;2.58;;;;;;;21.99;56.15;100571.67;1724903;82;21181;-83
2022/09/23 08:13:36;;;;;;;3.40;2.47;;;;;;;21.70;58.84;100580.81;1725144;82;21607;-78
2022/09/23 08:16:03;;;;;;;4.75;2.33;;;;;;;21.60;59.59;100577.11;1725211;83;21083;-77
2022/09/23 08:18:30;;;;;;;4.72;2.77;;;;;;;21.61;63.23;100581.45;1725432;82;21062;-77
2022/09/23 08:20:56;;;;;;;4.10;2.50;;;;;;;21.89;65.43;100578.97;1725291;82;21885;-79
2022/09/23 08:23:22;;;;;;;3.95;2.00;;;;;;;22.02;64.45;100572.95;1725307;82;21493;-79
2022/09/23 08:25:59;;;;;;;4.00;2.30;;;;;;;22.23;64.30;100568.81;1725258;82;21043;-79
2022/09/23 08:28:27;;;;;;;5.03;2.20;;;;;;;22.87;65.66;100559.97;1722949;82;21087;-76
2022/09/23 08:30:55;;;;;;;4.87;2.33;;;;;;;24.63;63.58;100555.39;1725297;82;21083;-76
2022/09/23 08:33:22;;;;;;;3.77;2.20;;;;;;;26.45;55.86;100545.44;1725204;82;21094;-78
2022/09/23 08:35:48;;;;;;;4.25;2.22;;;;;;;26.81;53.72;100547.43;1725431;82;21095;-76
2022/09/23 08:38:14;;;;;;;4.10;2.58;;;;;;;26.42;51.16;100555.06;1725437;83;21583;-79
2022/09/23 08:40:46;;;;;;;3.05;2.20;;;;;;;25.65;49.25;100561.45;1725420;82;20979;-77
2022/09/23 08:43:25;;;;;;;4.05;2.65;;;;;;;24.72;49.15;100561.52;1757042;81;21125;-78
2022/09/23 08:45:54;;;;;;;4.20;2.60;;;;;;;23.93;50.30;100560.02;1726535;83;22031;-75
2022/09/23 08:48:43;;;;;;;4.45;2.67;;;;;;;23.12;51.46;100560.80;1726639;83;21022;-75
2022/09/23 08:51:28;;;;;;;5.37;1.92;;;;;;;22.56;53.03;100561.09;1693541;84;21502;-80
2022/09/23 08:53:54;;;;;;;7.67;2.47;;;;;;;22.13;55.85;100560.98;1681390;85;21100;-77
2022/09/23 08:56:23;;;;;;;3.17;2.00;;;;;;;21.60;57.88;100556.55;1684786;85;21072;-77
2022/09/23 08:59:17;;;;;;;3.90;2.42;;;;;;;21.33;59.98;100558.64;1684575;85;21200;-77
2022/09/23 09:01:49;;;;;;;3.58;2.05;;;;;;;21.11;60.81;100560.31;1684221;85;20962;-78
2022/09/23 09:04:36;;;;;;;6.92;2.67;;;;;;;21.06;63.87;100563.23;1658328;86;21022;-78
2022/09/23 09:07:12;;;;;;;3.47;2.30;;;;;;;21.06;65.33;100553.64;1657890;86;21459;-75
2022/09/23 09:09:51;;;;;;;2.50;2.20;;;;;;;22.50;70.52;100550.09;1656088;86;21046;-78
2022/09/23 09:12:39;;;;;;;2.92;2.00;;;;;;;24.28;64.72;100549.75;1657981;86;21122;-82
2022/09/23 09:15:26;;;;;;;2.62;2.30;;;;;;;25.05;58.85;100549.29;1658247;86;20970;-78
2022/09/23 09:18:11;;;;;;;3.52;2.52;;;;;;;25.66;56.97;100541.77;1658276;86;21140;-81
2022/09/23 09:21:08;;;;;;;2.95;2.30;;;;;;;26.99;54.34;100537.23;1663734;86;22020;-81
2022/09/23 09:23:54;;;;;;;3.20;2.27;;;;;;;28.11;49.56;100534.10;1663749;84;21507;-81
2022/09/23 09:26:26;;;;;;;2.08;1.85;;;;;;;28.48;47.39;100536.86;1655304;85;21091;-80
2022/09/23 09:28:58;;;;;;;2.33;2.12;;;;;;;28.95;46.27;100539.39;1661703;86;21044;-79
2022/09/23 09:31:32;;;;;;;;;;;;;;;29.11;43.32;100533.55;1660367;86;21112;-79
2022/09/23 09:34:06;;;;;;;3.85;1.95;;;;;;;28.22;41.03;100534.22;1657387;86;20183;-82
2022/09/23 09:37:08;;;;;;;4.35;1.70;;;;;;;27.09;42.88;100544.30;1642331;86;21034;-77
2022/09/23 09:39:35;;;;;;;2.90;2.20;;;;;;;26.19;43.34;100543.41;1660087;86;21176;-79
2022/09/23 09:42:04;;;;;;;8.38;3.40;;;;;;;25.21;45.25;100549.27;1652723;86;21138;-78
2022/09/23 09:44:45;;;;;;;8.10;2.02;;;;;;;24.47;45.94;100545.18;1651265;86;21025;-77
2022/09/23 09:47:34;;;;;;;2.65;1.85;;;;;;;23.65;47.11;100547.59;1663885;84;21695;-80
2022/09/23 09:50:10;;;;;;;2.95;2.15;;;;;;;23.16;48.53;100553.23;1693655;83;21120;-78
2022/09/23 09:52:37;;;;;;;2.75;2.05;;;;;;;22.88;49.79;100553.89;1706164;84;21080;-81
2022/09/23 09:55:21;;;;;;;3.47;2.37;;;;;;;22.92;52.28;100555.41;1705735;84;21074;-79
2022/09/23 09:57:59;;;;;;;2.55;2.10;;;;;;;23.08;53.83;100551.63;1702318;84;21700;-81
2022/09/23 10:00:29;;;;;;;2.98;1.95;;;;;;;23.14;52.45;100550.81;1702786;83;21002;-78
2022/09/23 10:03:15;;;;;;;5.35;2.22;;;;;;;23.18;53.03;100542.13;1688933;81;21627;-79
2022/09/23 10:05:51;;;;;;;2.60;2.08;;;;;;;23.48;54.16;100544.57;1745170;81;21138;-79
2022/09/23 10:08:37;;;;;;;5.10;2.62;;;;;;;23.64;57.92;100545.42;1813736;76;21006;-85
2022/09/23 10:11:16;;;;;;;7.25;2.70;;;;;;;23.36;60.22;100553.66;1854206;77;21007;-81
2022/09/23 10:14:08;;;;;;;6.17;2.42;;;;;;;22.43;75.47;100568.52;1851783;76;20958;-81
2022/09/23 10:16:34;;;;;;;4.05;2.00;;;;;;;21.14;88.35;100567.88;1728675;82;20998;-84
2022/09/23 10:19:05;;;;;;;4.83;2.02;;;;;;;19.98;100.00;100557.97;1729174;83;21124;-81
2022/09/23 10:21:35;;;;;;;3.87;1.80;;;;;;;19.42;100.00;100559.72;1725601;83;21104;-79
2022/09/23 10:24:05;;;;;;;3.85;2.17;;;;;;;19.07;100.00;100555.55;1705480;83;21054;-80
2022/09/23 10:26:40;;;;;;;17.17;2.42;;;;;;;18.88;100.00;100552.28;1729120;82;21514;-79
2022/09/23 10:29:42;;;;;;;3.05;2.00;;;;;;;18.87;100.00;100552.05;1729312;83;20990;-79
2022/09/23 10:32:36;;;;;;;3.52;2.30;;;;;;;18.82;100.00;100546.98;1725826;83;21129;-83
2022/09/23 10:35:12;;;;;;;5.10;2.00;;;;;;;18.84;100.00;100550.18;1672536;84;21102;-80
2022/09/23 10:37:54;;;;;;;3.37;2.30;;;;;;;19.07;100.00;100550.09;1667583;86;21664;-83
2022/09/23 10:49:41;;;;;;;3.35;1.85;;;;;;;20.25;100.00;100548.57;1698704;84;20513;-79
2022/09/23 10:52:35;;;;;;;2.45;1.60;;;;;;;20.41;100.00;100541.45;1703120;84;21087;-85
2022/09/23 10:55:18;;;;;;;5.22;1.62;;;;;;;20.57;100.00;100547.78;1706562;84;21640;-79
2022/09/23 10:58:12;;;;;;;3.30;1.77;;;;;;;20.70;100.00;100553.59;1702430;84;21088;-79
2022/09/23 11:01:15;;;;;;;3.60;1.60;;;;;;;20.89;100.00;100537.33;1682530;84;21137;-79
2022/09/23 11:04:02;;;;;;;2.95;1.80;;;;;;;20.96;100.00;100542.51;1667301;85;21257;-80
2022/09/23 11:07:24;;;;;;;2.85;1.50;;;;;;;20.84;100.00;100541.84;1691220;84;21071;-77
2022/09/23 11:09:56;;;;;;;3.05;1.47;;;;;;;20.63;100.00;100548.63;1689247;84;21059;-84
2022/09/23 11:12:48;;;;;;;4.03;1.70;;;;;;;20.51;100.00;100547.70;1691218;84;21587;-80
2022/09/23 11:15:43;;;;;;;2.87;1.35;;;;;;;20.40;100.00;100542.56;1689904;84;21088;-81
2022/09/23 11:18:33;;;;;;;4.65;1.92;;;;;;;20.24;100.00;100546.17;1691264;84;21061;-81
2022/09/23 11:21:32;;;;;;;3.00;1.80;;;;;;;20.00;99.90;100548.88;1691195;84;21107;-81
2022/09/23 11:24:27;;;;;;;2.12;1.50;;;;;;;19.83;100.00;100551.64;1691051;84;21051;-81
2022/09/23 11:27:10;;;;;;;3.20;1.62;;;;;;;19.58;100.00;100552.64;1664187;85;21565;-84
2022/09/23 11:29:59;;;;;;;3.02;1.80;;;;;;;19.45;100.00;100550.31;1660712;86;21112;-82
2022/09/23 11:32:45;;;;;;;2.15;1.42;;;;;;;19.25;100.00;100548.20;1656193;85;20991;-83
2022/09/23 11:35:43;;;;;;;2.52;1.40;;;;;;;19.05;100.00;100549.03;1670685;85;21589;-86
2022/09/23 11:38:15;;;;;;;1.95;1.50;;;;;;;19.04;100.00;100548.00;1670890;85;21069;-80
2022/09/23 11:40:45;;;;;;;2.75;1.40;;;;;;;19.11;100.00;100552.98;1645856;85;21073;-86
2022/09/23 11:43:31;;;;;;;2.58;1.62;;;;;;;19.10;99.66;100546.72;1662876;85;21877;-79
2022/09/23 11:46:32;;;;;;;1.90;1.70;;;;;;;19.16;97.48;100552.84;1588069;88;21077;-83
2022/09/23 11:49:15;;;;;;;2.45;1.57;;;;;;;19.21;96.43;100549.97;1659199;85;21510;-85
2022/09/23 11:52:19;;;;;;;2.60;1.45;;;;;;;19.30;97.31;100548.05;1662490;86;21065;-82
2022/09/23 11:54:54;;;;;;;2.50;1.70;;;;;;;19.34;95.53;100547.64;1665164;86;21045;-81
2022/09/23 11:57:48;;;;;;;3.77;2.20;;;;;;;19.37;92.76;100546.20;1665280;86;22014;-78
2022/09/23 12:00:23;;;;;;;6.95;2.75;;;;;;;19.38;92.70;100543.70;1691161;84;21018;-80
2022/09/23 12:03:09;;;;;;;6.33;2.80;;;;;;;19.47;95.22;100541.23;1691278;84;21103;-79
2022/09/23 12:06:02;;;;;;;7.33;3.60;;;;;;;19.54;96.16;100542.68;1690855;84;21523;-81
2022/09/23 12:08:35;;;;;;;4.80;2.27;;;;;;;19.56;94.21;100539.05;1611197;89;21039;-83
2022/09/23 12:11:37;;;;;;;3.00;1.90;;;;;;;19.56;95.21;100542.61;1654846;86;21043;-80
2022/09/23 12:14:26;;;;;;;3.87;1.95;;;;;;;19.50;92.60;100543.86;1658071;86;21058;-78
2022/09/23 12:17:06;;;;;;;4.20;2.35;;;;;;;19.48;94.46;100538.73;1657961;86;21045;-80